createdAt,value
2019-05-29T00:01:30.042Z,100556.45
2019-05-29T00:03:56.098Z,100562.73
2019-05-29T00:06:21.995Z,100556.07
2019-05-29T00:08:47.902Z,100556.07
2019-05-29T00:11:14.280Z,100553.78
2019-05-29T00:13:40.306Z,100562.05
2019-05-29T00:16:06.497Z,100549.70
2019-05-29T00:18:32.707Z,100548.00
2019-05-29T00:20:58.607Z,100557.41
2019-05-29T00:23:24.631Z,100551.30
2019-05-29T00:25:50.718Z,100546.16
2019-05-29T00:28:16.832Z,100544.91
2019-05-29T00:30:42.894Z,100546.25
2019-05-29T00:33:10.099Z,100542.25
2019-05-29T00:35:36.204Z,100546.80
2019-05-29T00:38:02.381Z,100548.77
2019-05-29T00:40:28.548Z,100539.72
2019-05-29T00:42:54.461Z,100534.80
2019-05-29T00:45:20.589Z,100533.47
2019-05-29T00:47:46.761Z,100537.47
2019-05-29T00:50:14.091Z,100539.72
2019-05-29T00:52:40.178Z,100546.69
2019-05-29T00:55:06.527Z,100536.05
2019-05-29T00:57:32.518Z,100536.42
2019-05-29T00:59:58.439Z,100530.23
2019-05-29T01:02:24.536Z,100528.80
2019-05-29T01:04:50.521Z,100517.23
2019-05-29T01:07:20.563Z,100515.41
2019-05-29T01:09:46.823Z,100514.48
2019-05-29T01:12:12.885Z,100509.34
2019-05-29T01:14:49.566Z,100513.02
2019-05-29T01:17:06.988Z,100509.20
2019-05-29T01:19:33.053Z,100512.36
2019-05-29T01:21:58.929Z,100508.83
2019-05-29T01:24:25.771Z,100511.03
2019-05-29T01:26:51.867Z,100512.82
2019-05-29T01:29:19.362Z,100507.41
2019-05-29T01:31:45.727Z,100504.66
2019-05-29T01:34:11.673Z,100505.80
2019-05-29T01:36:37.514Z,100502.19
2019-05-29T01:39:05.424Z,100501.35
2019-05-29T01:41:31.334Z,100493.73
2019-05-29T01:43:57.237Z,100499.44
2019-05-29T01:46:23.896Z,100498.59
2019-05-29T01:48:49.873Z,100500.86
2019-05-29T01:51:15.770Z,100498.78
2019-05-29T01:53:41.812Z,100497.82
2019-05-29T01:56:07.752Z,100497.36
2019-05-29T01:58:33.751Z,100495.94
2019-05-29T02:00:59.842Z,100490.20
2019-05-29T02:03:25.846Z,100484.88
2019-05-29T02:05:51.756Z,100492.78
2019-05-29T02:08:18.101Z,100486.44
2019-05-29T02:10:44.018Z,100492.50
2019-05-29T02:13:10.053Z,100494.23
2019-05-29T02:15:36.372Z,100484.83
2019-05-29T02:18:02.603Z,100482.95
2019-05-29T02:20:28.495Z,100474.86
2019-05-29T02:22:54.756Z,100471.34
2019-05-29T02:25:22.321Z,100472.20
2019-05-29T02:27:48.659Z,100483.31
2019-05-29T02:30:15.014Z,100469.14
2019-05-29T02:32:41.016Z,100463.44
2019-05-29T02:35:07.116Z,100457.16
2019-05-29T02:37:33.284Z,100461.92
2019-05-29T02:39:59.309Z,100452.14
2019-05-29T02:42:26.985Z,100387.97
2019-05-29T02:44:53.343Z,100457.75
2019-05-29T02:47:19.425Z,100451.09
2019-05-29T02:49:45.319Z,100451.00
2019-05-29T02:52:11.469Z,100452.23
2019-05-29T02:54:37.571Z,100451.71
2019-05-29T02:57:03.689Z,100448.09
2019-05-29T02:59:31.746Z,100451.13
2019-05-29T03:01:57.534Z,100456.45
2019-05-29T03:04:24.107Z,100449.42
2019-05-29T03:06:51.650Z,100450.19
2019-05-29T03:09:17.764Z,100446.20
2019-05-29T03:11:43.975Z,100448.27
2019-05-29T03:14:10.003Z,100444.69
2019-05-29T03:16:36.034Z,100445.05
2019-05-29T03:19:01.955Z,100446.29
2019-05-29T03:21:28.453Z,100440.41
2019-05-29T03:23:54.857Z,100430.13
2019-05-29T03:26:24.633Z,100437.16
2019-05-29T03:28:48.676Z,100435.35
2019-05-29T03:31:14.727Z,100432.69
2019-05-29T03:33:48.358Z,100433.83
2019-05-29T03:36:08.736Z,100423.95
2019-05-29T03:38:35.036Z,100421.66
2019-05-29T03:41:01.195Z,100429.95
2019-05-29T03:43:28.629Z,100433.95
2019-05-29T03:45:54.692Z,100430.70
2019-05-29T03:48:20.770Z,100422.14
2019-05-29T03:50:46.873Z,100421.19
2019-05-29T03:53:12.882Z,100418.92
2019-05-29T03:55:38.828Z,100416.99
2019-05-29T03:58:05.243Z,100414.23
2019-05-29T04:00:38.892Z,100414.54
2019-05-29T04:02:59.236Z,100410.91
2019-05-29T04:05:26.706Z,100409.86
2019-05-29T04:07:52.757Z,100397.77
2019-05-29T04:10:27.224Z,100333.03
2019-05-29T04:12:53.235Z,100395.77
2019-05-29T04:15:19.242Z,100403.67
2019-05-29T04:17:45.640Z,100396.45
2019-05-29T04:20:11.745Z,100393.38
2019-05-29T04:22:43.829Z,100391.48
2019-05-29T04:25:10.440Z,100397.19
2019-05-29T04:27:39.136Z,100396.16
2019-05-29T04:30:06.637Z,100391.29
2019-05-29T04:32:34.214Z,100401.75
2019-05-29T04:35:00.277Z,100399.86
2019-05-29T04:37:26.186Z,100396.73
2019-05-29T04:39:52.315Z,100389.97
2019-05-29T04:42:18.219Z,100393.87
2019-05-29T04:44:44.141Z,100389.77
2019-05-29T04:47:12.258Z,100393.67
2019-05-29T04:49:39.777Z,100385.67
2019-05-29T04:52:05.930Z,100379.84
2019-05-29T04:54:33.372Z,100370.52
2019-05-29T04:56:59.382Z,100370.52
2019-05-29T04:59:25.388Z,100372.62
2019-05-29T05:01:51.506Z,100358.55
2019-05-29T05:04:17.512Z,100373.48
2019-05-29T05:06:43.508Z,100368.98
2019-05-29T05:09:09.613Z,100365.85
2019-05-29T05:11:35.627Z,100366.82
2019-05-29T05:14:03.531Z,100364.16
2019-05-29T05:16:29.818Z,100359.29
2019-05-29T05:18:55.781Z,100362.05
2019-05-29T05:21:21.665Z,100363.02
2019-05-29T05:23:47.669Z,100371.75
2019-05-29T05:26:13.575Z,100370.91
2019-05-29T05:28:44.278Z,100365.95
2019-05-29T05:31:07.655Z,100370.41
2019-05-29T05:33:34.515Z,100370.81
2019-05-29T05:36:00.521Z,100377.95
2019-05-29T05:38:26.528Z,100372.62
2019-05-29T05:40:52.439Z,100377.08
2019-05-29T05:43:24.230Z,100370.15
2019-05-29T05:45:46.342Z,100361.38
2019-05-29T05:48:12.248Z,100361.11
2019-05-29T05:50:39.207Z,100364.25
2019-05-29T05:53:05.545Z,100368.25
2019-05-29T05:55:31.551Z,100364.84
2019-05-29T05:57:57.548Z,100360.95
2019-05-29T06:00:31.682Z,100351.88
2019-05-29T06:02:58.267Z,100351.52
2019-05-29T06:05:24.298Z,100354.84
2019-05-29T06:07:50.471Z,100349.24
2019-05-29T06:10:16.566Z,100356.27
2019-05-29T06:12:42.950Z,100355.64
2019-05-29T06:15:09.293Z,100351.33
2019-05-29T06:17:35.183Z,100353.63
2019-05-29T06:20:04.058Z,100352.59
2019-05-29T06:22:30.062Z,100349.66
2019-05-29T06:24:55.983Z,100360.41
2019-05-29T06:27:22.012Z,100357.84
2019-05-29T06:29:48.007Z,100355.28
2019-05-29T06:32:13.936Z,100353.45
2019-05-29T06:34:39.864Z,100353.17
2019-05-29T06:37:05.871Z,100368.85
2019-05-29T06:39:31.757Z,100369.81
2019-05-29T06:41:57.808Z,100369.14
2019-05-29T06:44:23.885Z,100363.54
2019-05-29T06:46:49.867Z,100371.26
2019-05-29T06:49:15.895Z,100373.61
2019-05-29T06:51:41.904Z,100372.11
2019-05-29T06:54:07.826Z,100370.87
2019-05-29T06:56:33.750Z,100370.16
2019-05-29T06:58:59.874Z,100368.45
2019-05-29T07:01:25.758Z,100358.27
2019-05-29T07:04:07.905Z,100362.76
2019-05-29T07:06:19.671Z,100362.27
2019-05-29T07:08:48.244Z,100357.53
2019-05-29T07:11:13.709Z,100357.12
2019-05-29T07:13:41.779Z,100365.21
2019-05-29T07:16:07.509Z,100361.91
2019-05-29T07:18:33.584Z,100365.40
2019-05-29T07:20:59.749Z,100360.27
2019-05-29T07:23:25.707Z,100365.78
2019-05-29T07:25:51.710Z,100362.74
2019-05-29T07:28:18.108Z,100356.09
2019-05-29T07:30:54.408Z,100354.85
2019-05-29T07:33:11.982Z,100355.50
2019-05-29T07:35:37.989Z,100354.57
2019-05-29T07:38:04.084Z,100353.80
2019-05-29T07:40:30.043Z,100357.42
2019-05-29T07:42:57.070Z,100355.22
2019-05-29T07:45:23.312Z,100365.50
2019-05-29T07:47:49.352Z,100362.44
2019-05-29T07:50:15.859Z,100362.16
2019-05-29T07:52:43.201Z,100364.36
2019-05-29T07:55:10.104Z,100359.50
2019-05-29T07:57:36.199Z,100364.36
2019-05-29T08:00:05.894Z,100366.16
2019-05-29T08:02:31.929Z,100363.13
2019-05-29T08:04:58.035Z,100365.69
2019-05-29T08:07:24.200Z,100363.86
2019-05-29T08:09:50.236Z,100362.53
2019-05-29T08:12:20.144Z,100361.80
2019-05-29T08:14:46.050Z,100293.77
2019-05-29T08:17:12.091Z,100357.80
2019-05-29T08:19:56.439Z,100361.39
2019-05-29T08:22:06.286Z,100364.83
2019-05-29T08:24:34.100Z,100368.26
2019-05-29T08:27:00.228Z,100361.11
2019-05-29T08:29:26.141Z,100366.42
2019-05-29T08:31:52.168Z,100364.63
2019-05-29T08:34:18.333Z,100361.32
2019-05-29T08:37:00.822Z,100356.00
2019-05-29T08:39:12.076Z,100356.27
2019-05-29T08:41:38.188Z,100357.97
2019-05-29T08:44:04.164Z,100351.72
2019-05-29T08:46:33.360Z,100337.24
2019-05-29T08:48:57.988Z,100360.27
2019-05-29T08:51:23.902Z,100359.80
2019-05-29T08:53:52.068Z,100346.86
2019-05-29T08:56:17.863Z,100350.76
2019-05-29T08:58:44.370Z,100349.73
2019-05-29T09:01:10.440Z,100346.58
2019-05-29T09:03:36.615Z,100347.44
2019-05-29T09:06:08.866Z,100351.80
2019-05-29T09:08:30.718Z,100351.90
2019-05-29T09:10:56.790Z,100349.73
2019-05-29T09:13:22.682Z,100356.66
2019-05-29T09:15:48.813Z,100346.88
2019-05-29T09:18:15.087Z,100352.67
2019-05-29T09:21:01.061Z,100347.81
2019-05-29T09:23:08.882Z,100351.25
2019-05-29T09:25:35.181Z,100348.86
2019-05-29T09:28:04.878Z,100271.94
2019-05-29T09:30:30.798Z,100346.09
2019-05-29T09:32:56.829Z,100347.37
2019-05-29T09:35:24.598Z,100346.80
2019-05-29T09:37:50.683Z,100357.27
2019-05-29T09:40:19.203Z,100350.41
2019-05-29T09:42:45.586Z,100346.33
2019-05-29T09:45:11.693Z,100350.13
2019-05-29T09:47:37.896Z,100348.33
2019-05-29T09:50:07.233Z,100349.56
2019-05-29T09:52:33.183Z,100345.37
2019-05-29T09:55:00.275Z,100360.70
2019-05-29T09:57:26.471Z,100356.11
2019-05-29T09:59:53.814Z,100361.34
2019-05-29T10:02:22.552Z,100363.44
2019-05-29T10:04:48.560Z,100358.48
2019-05-29T10:07:14.673Z,100348.23
2019-05-29T10:09:40.873Z,100353.36
2019-05-29T10:12:07.079Z,100352.86
2019-05-29T10:14:33.207Z,100351.06
2019-05-29T10:17:05.944Z,100341.17
2019-05-29T10:19:27.214Z,100343.74
2019-05-29T10:21:54.766Z,100350.41
2019-05-29T10:24:20.845Z,100343.64
2019-05-29T10:26:46.769Z,100349.80
2019-05-29T10:29:12.806Z,100352.00
2019-05-29T10:31:38.867Z,100351.54
2019-05-29T10:34:04.883Z,100356.37
2019-05-29T10:36:30.810Z,100362.09
2019-05-29T10:38:57.084Z,100358.94
2019-05-29T10:41:23.000Z,100354.01
2019-05-29T10:43:49.195Z,100353.05
2019-05-29T10:46:15.281Z,100344.39
2019-05-29T10:48:41.205Z,100345.22
2019-05-29T10:51:07.230Z,100343.33
2019-05-29T10:53:33.302Z,100341.33
2019-05-29T10:55:59.238Z,100337.03
2019-05-29T10:58:25.276Z,100341.33
2019-05-29T11:00:51.459Z,100347.39
2019-05-29T11:03:17.439Z,100350.13
2019-05-29T11:05:43.402Z,100348.69
2019-05-29T11:08:09.535Z,100352.45
2019-05-29T11:10:35.876Z,100342.91
2019-05-29T11:13:01.962Z,100343.23
2019-05-29T11:15:28.275Z,100341.59
2019-05-29T11:17:55.316Z,100348.92
2019-05-29T11:20:22.721Z,100352.45
2019-05-29T11:22:49.557Z,100352.45
2019-05-29T11:25:23.371Z,100354.72
2019-05-29T11:27:43.774Z,100350.56
2019-05-29T11:30:11.728Z,100358.77
2019-05-29T11:32:38.868Z,100347.95
2019-05-29T11:35:05.201Z,100353.12
2019-05-29T11:37:31.371Z,100353.98
2019-05-29T11:39:57.276Z,100351.05
2019-05-29T11:42:27.626Z,100355.36
2019-05-29T11:44:53.279Z,100352.89
2019-05-29T11:47:19.488Z,100357.66
2019-05-29T11:49:45.393Z,100361.85
2019-05-29T11:52:23.682Z,100370.81
2019-05-29T11:54:39.295Z,100367.95
2019-05-29T11:57:05.351Z,100366.34
2019-05-29T11:59:31.432Z,100365.41
2019-05-29T12:01:59.325Z,100360.17
2019-05-29T12:04:26.899Z,100356.00
2019-05-29T12:06:53.303Z,100358.40
2019-05-29T12:09:31.885Z,100370.75
2019-05-29T12:11:47.376Z,100373.88
2019-05-29T12:14:13.443Z,100375.61
2019-05-29T12:16:39.475Z,100376.64
2019-05-29T12:19:05.487Z,100381.53
2019-05-29T12:21:31.601Z,100385.33
2019-05-29T12:23:58.211Z,100386.19
2019-05-29T12:26:25.327Z,100377.68
2019-05-29T12:28:53.467Z,100377.69
2019-05-29T12:31:19.276Z,100370.64
2019-05-29T12:33:45.244Z,100356.74
2019-05-29T12:36:11.365Z,100358.72
2019-05-29T12:38:37.349Z,100351.98
2019-05-29T12:41:03.918Z,100355.20
2019-05-29T12:43:30.047Z,100362.72
2019-05-29T12:45:57.611Z,100358.63
2019-05-29T12:48:23.696Z,100363.00
2019-05-29T12:50:49.899Z,100375.56
2019-05-29T12:53:29.610Z,100364.42
2019-05-29T12:55:43.821Z,100366.90
2019-05-29T12:58:09.828Z,100362.91
2019-05-29T13:00:35.816Z,100358.42
2019-05-29T13:03:03.102Z,100365.57
2019-05-29T13:05:29.326Z,100371.54
2019-05-29T13:07:56.750Z,100372.00
2019-05-29T13:10:30.562Z,100369.98
2019-05-29T13:12:51.873Z,100364.30
2019-05-29T13:15:18.473Z,100369.52
2019-05-29T13:17:44.609Z,100371.13
2019-05-29T13:20:21.265Z,100365.57
2019-05-29T13:22:40.946Z,100355.89
2019-05-29T13:25:07.367Z,100353.69
2019-05-29T13:27:33.790Z,100343.03
2019-05-29T13:30:02.478Z,100341.61
2019-05-29T13:32:27.942Z,100317.11
2019-05-29T13:34:55.759Z,100346.67
2019-05-29T13:37:21.820Z,100349.14
2019-05-29T13:39:47.742Z,100346.34
2019-05-29T13:42:14.228Z,100348.89
2019-05-29T13:44:40.133Z,100351.48
2019-05-29T13:47:06.392Z,100338.70
2019-05-29T13:49:32.625Z,100335.55
2019-05-29T13:51:59.150Z,100330.95
2019-05-29T13:54:25.132Z,100339.13
2019-05-29T13:56:51.286Z,100340.62
2019-05-29T13:59:17.321Z,100336.09
2019-05-29T14:01:48.125Z,100329.48
2019-05-29T14:04:11.364Z,100330.10
2019-05-29T14:06:37.472Z,100328.34
2019-05-29T14:09:07.586Z,100335.72
2019-05-29T14:11:34.106Z,100326.08
2019-05-29T14:14:01.251Z,100330.89
2019-05-29T14:16:27.264Z,100339.45
2019-05-29T14:18:53.580Z,100342.69
2019-05-29T14:21:19.572Z,100348.55
2019-05-29T14:23:45.470Z,100354.61
2019-05-29T14:26:12.994Z,100349.39
2019-05-29T14:28:39.015Z,100349.06
2019-05-29T14:31:05.983Z,100353.02
2019-05-29T14:33:32.290Z,100354.45
2019-05-29T14:35:58.179Z,100354.86
2019-05-29T14:38:24.075Z,100354.86
2019-05-29T14:40:50.259Z,100352.19
2019-05-29T14:43:16.206Z,100349.63
2019-05-29T14:45:42.082Z,100346.86
2019-05-29T14:48:08.258Z,100343.89
2019-05-29T14:50:34.290Z,100351.22
2019-05-29T14:53:00.309Z,100347.02
2019-05-29T14:55:26.346Z,100349.38
2019-05-29T14:57:52.247Z,100346.61
2019-05-29T15:00:24.760Z,100351.75
2019-05-29T15:02:46.834Z,100352.51
2019-05-29T15:05:15.217Z,100305.73
2019-05-29T15:07:41.386Z,100351.34
2019-05-29T15:10:22.633Z,100347.84
2019-05-29T15:12:37.342Z,100354.88
2019-05-29T15:15:06.674Z,100348.25
2019-05-29T15:17:33.128Z,100341.83
2019-05-29T15:19:59.026Z,100347.78
2019-05-29T15:22:24.916Z,100349.23
2019-05-29T15:25:04.213Z,100350.19
2019-05-29T15:27:21.041Z,100351.27
2019-05-29T15:29:46.952Z,100363.95
2019-05-29T15:32:14.520Z,100369.19
2019-05-29T15:34:40.581Z,100380.97
2019-05-29T15:37:10.245Z,100381.62
2019-05-29T15:39:34.410Z,100384.53
2019-05-29T15:42:00.333Z,100390.38
2019-05-29T15:44:26.419Z,100387.30
2019-05-29T15:46:52.565Z,100390.88
2019-05-29T15:49:18.557Z,100399.15
2019-05-29T15:51:44.478Z,100400.84
2019-05-29T15:54:11.211Z,100409.85
2019-05-29T15:56:37.219Z,100401.31
2019-05-29T15:59:03.736Z,100403.33
2019-05-29T16:01:29.750Z,100407.81
2019-05-29T16:03:55.669Z,100402.73
2019-05-29T16:06:21.724Z,100411.48
2019-05-29T16:08:47.829Z,100411.97
2019-05-29T16:11:14.652Z,100409.67
2019-05-29T16:13:40.710Z,100418.53
2019-05-29T16:16:06.793Z,100421.38
2019-05-29T16:18:32.716Z,100438.59
2019-05-29T16:20:58.641Z,100429.75
2019-05-29T16:23:34.733Z,100445.45
2019-05-29T16:25:52.660Z,100451.34
2019-05-29T16:28:19.368Z,100460.48
2019-05-29T16:30:45.471Z,100458.67
2019-05-29T16:33:12.842Z,100464.27
2019-05-29T16:35:38.817Z,100407.28
2019-05-29T16:38:05.006Z,100480.56
2019-05-29T16:40:30.936Z,100484.05
2019-05-29T16:42:56.843Z,100493.75
2019-05-29T16:45:23.033Z,100493.84
2019-05-29T16:47:48.971Z,100502.59
2019-05-29T16:50:17.321Z,100525.13
2019-05-29T16:52:43.668Z,100527.98
2019-05-29T16:55:11.211Z,100526.09
2019-05-29T16:57:37.117Z,100531.11
2019-05-29T17:00:07.236Z,100540.97
2019-05-29T17:02:33.260Z,100537.12
2019-05-29T17:04:59.269Z,100550.10
2019-05-29T17:07:25.470Z,100543.89
2019-05-29T17:09:51.885Z,100568.36
2019-05-29T17:12:18.370Z,100568.87
2019-05-29T17:14:44.510Z,100582.80
2019-05-29T17:17:10.588Z,100580.72
2019-05-29T17:19:36.754Z,100595.66
2019-05-29T17:22:02.977Z,100588.42
2019-05-29T17:24:28.995Z,100586.77
2019-05-29T17:26:54.895Z,100585.52
2019-05-29T17:29:20.956Z,100597.58
2019-05-29T17:31:46.875Z,100612.45
2019-05-29T17:34:12.780Z,100607.88
2019-05-29T17:36:38.845Z,100641.52
2019-05-29T17:39:06.381Z,100640.10
2019-05-29T17:41:32.276Z,100636.36
2019-05-29T17:43:58.448Z,100638.31
2019-05-29T17:46:25.858Z,100569.84
2019-05-29T17:48:51.996Z,100653.65
2019-05-29T17:51:18.088Z,100656.62
2019-05-29T17:53:44.008Z,100666.69
2019-05-29T17:56:23.361Z,100666.69
2019-05-29T17:58:38.097Z,100669.92
2019-05-29T18:01:04.535Z,100676.30
2019-05-29T18:03:30.430Z,100677.33
2019-05-29T18:05:56.608Z,100666.14
2019-05-29T18:08:22.915Z,100680.34
2019-05-29T18:10:49.108Z,100692.45
2019-05-29T18:13:15.112Z,100687.20
2019-05-29T18:15:41.212Z,100702.77
2019-05-29T18:18:07.211Z,100708.15
2019-05-29T18:20:33.377Z,100715.92
2019-05-29T18:22:59.266Z,100725.59
2019-05-29T18:25:26.044Z,100736.02
2019-05-29T18:27:52.230Z,100746.13
2019-05-29T18:30:18.635Z,100750.69
2019-05-29T18:32:44.529Z,100756.70
2019-05-29T18:35:12.221Z,100775.94
2019-05-29T18:37:38.330Z,100763.48
2019-05-29T18:40:12.302Z,100761.56
2019-05-29T18:42:35.989Z,100767.88
2019-05-29T18:45:19.802Z,100772.14
2019-05-29T18:47:35.639Z,100765.65
2019-05-29T18:50:04.414Z,100780.23
2019-05-29T18:52:32.739Z,100780.30
2019-05-29T18:54:58.225Z,100781.56
2019-05-29T18:57:25.077Z,100787.66
2019-05-29T18:59:51.033Z,100783.69
2019-05-29T19:02:17.027Z,100791.50
2019-05-29T19:04:43.136Z,100782.61
2019-05-29T19:07:09.141Z,100790.95
2019-05-29T19:09:35.155Z,100787.39
2019-05-29T19:12:01.197Z,100799.19
2019-05-29T19:14:27.966Z,100796.47
2019-05-29T19:16:54.020Z,100803.63
2019-05-29T19:19:20.202Z,100800.58
2019-05-29T19:21:46.127Z,100808.47
2019-05-29T19:24:12.243Z,100823.44
2019-05-29T19:26:38.313Z,100814.48
2019-05-29T19:29:04.412Z,100820.06
2019-05-29T19:31:31.310Z,100819.92
2019-05-29T19:33:57.520Z,100826.48
2019-05-29T19:36:23.638Z,100827.81
2019-05-29T19:38:49.555Z,100835.70
2019-05-29T19:41:15.655Z,100836.96
2019-05-29T19:43:41.658Z,100836.02
2019-05-29T19:46:07.776Z,100841.67
2019-05-29T19:48:35.202Z,100852.14
2019-05-29T19:51:01.566Z,100855.98
2019-05-29T19:53:28.016Z,100850.19
2019-05-29T19:55:54.517Z,100865.59
2019-05-29T19:58:20.555Z,100865.06
2019-05-29T20:00:46.468Z,100866.33
2019-05-29T20:03:12.729Z,100871.95
2019-05-29T20:05:38.812Z,100879.31
2019-05-29T20:08:04.909Z,100882.36
2019-05-29T20:10:31.426Z,100872.92
2019-05-29T20:12:57.375Z,100890.98
2019-05-29T20:15:23.511Z,100898.42
2019-05-29T20:17:49.571Z,100901.39
2019-05-29T20:20:15.878Z,100903.97
2019-05-29T20:22:41.913Z,100914.59
2019-05-29T20:25:09.204Z,100912.67
2019-05-29T20:27:36.306Z,100913.12
2019-05-29T20:30:03.804Z,100915.26
2019-05-29T20:32:30.525Z,100921.41
2019-05-29T20:34:56.577Z,100931.95
2019-05-29T20:37:22.610Z,100933.36
2019-05-29T20:39:48.698Z,100939.92
2019-05-29T20:42:14.711Z,100935.48
2019-05-29T20:44:40.650Z,100942.92
2019-05-29T20:47:08.551Z,100947.36
2019-05-29T20:49:34.443Z,100944.39
2019-05-29T20:52:00.382Z,100958.51
2019-05-29T20:54:26.371Z,100963.81
2019-05-29T20:56:52.268Z,100966.47
2019-05-29T20:59:18.448Z,100969.27
2019-05-29T21:01:47.395Z,100965.84
2019-05-29T21:04:12.223Z,100972.48
2019-05-29T21:06:38.625Z,100981.77
2019-05-29T21:09:05.626Z,100988.61
2019-05-29T21:11:31.524Z,100988.61
2019-05-29T21:13:57.441Z,100988.12
2019-05-29T21:16:23.572Z,100994.38
2019-05-29T21:18:49.614Z,101000.20
2019-05-29T21:21:15.584Z,101008.78
2019-05-29T21:23:42.509Z,101003.52
2019-05-29T21:26:08.496Z,101009.38
2019-05-29T21:28:40.779Z,101017.86
2019-05-29T21:31:02.470Z,101027.20
2019-05-29T21:33:28.594Z,101027.27
2019-05-29T21:35:54.533Z,101028.28
2019-05-29T21:38:20.704Z,101026.14
2019-05-29T21:40:46.833Z,101030.19
2019-05-29T21:43:12.705Z,101035.95
2019-05-29T21:45:38.770Z,101033.30
2019-05-29T21:48:04.780Z,101044.78
2019-05-29T21:50:31.105Z,101039.55
2019-05-29T21:52:57.170Z,101039.61
2019-05-29T21:55:23.173Z,101043.59
2019-05-29T21:57:50.344Z,101060.39
2019-05-29T22:00:19.328Z,101056.05
2019-05-29T22:02:46.399Z,101062.36
2019-05-29T22:05:12.749Z,101064.13
2019-05-29T22:07:39.008Z,101068.18
2019-05-29T22:10:05.429Z,101073.09
2019-05-29T22:12:31.477Z,101083.32
2019-05-29T22:14:58.869Z,101077.53
2019-05-29T22:17:24.861Z,101087.36
2019-05-29T22:19:51.011Z,101091.53
2019-05-29T22:22:17.169Z,101095.67
2019-05-29T22:24:43.190Z,101100.25
2019-05-29T22:27:09.304Z,101094.59
2019-05-29T22:29:35.388Z,101105.33
2019-05-29T22:32:01.636Z,101105.98
2019-05-29T22:34:27.640Z,101107.08
2019-05-29T22:36:53.830Z,101098.28
2019-05-29T22:39:19.939Z,101109.91
2019-05-29T22:41:45.974Z,101107.32
2019-05-29T22:44:12.159Z,101112.63
2019-05-29T22:46:38.247Z,101110.34
2019-05-29T22:49:04.269Z,101119.31
2019-05-29T22:51:30.291Z,101108.13
2019-05-29T22:53:56.307Z,101111.89
2019-05-29T22:56:22.310Z,101106.59
2019-05-29T22:58:48.412Z,101108.03
2019-05-29T23:01:14.336Z,101122.67
2019-05-29T23:03:40.370Z,101118.31
2019-05-29T23:06:06.424Z,101120.95
2019-05-29T23:08:32.518Z,101125.38
2019-05-29T23:10:58.545Z,101131.63
2019-05-29T23:13:24.659Z,101135.17
2019-05-29T23:15:50.572Z,101127.82
2019-05-29T23:18:16.499Z,101131.42
2019-05-29T23:20:42.544Z,101130.70
2019-05-29T23:23:08.650Z,101141.81
2019-05-29T23:25:34.682Z,101139.90
2019-05-29T23:28:01.131Z,101148.41
2019-05-29T23:30:30.264Z,101149.39
2019-05-29T23:32:54.975Z,101147.20
2019-05-29T23:35:20.970Z,101159.55
2019-05-29T23:37:46.873Z,101162.25
2019-05-29T23:40:14.189Z,101158.39
2019-05-29T23:42:40.271Z,101170.81
2019-05-29T23:45:06.778Z,101160.33
2019-05-29T23:47:32.811Z,101173.13
2019-05-29T23:49:59.709Z,101182.45
2019-05-29T23:52:25.696Z,101193.05
2019-05-29T23:54:51.635Z,101191.25
2019-05-29T23:57:17.814Z,101193.95
2019-05-29T23:59:43.710Z,101200.23
